sensor_id;sensor_type;location;lat;lon;timestamp;pressure;altitude;pressure_sealevel;temperature;humidity
32747;BME280;19118;50.860;13.662;2023-07-30T00:02:06;96359.31;;;15.94;100.00
32747;BME280;19118;50.860;13.662;2023-07-30T00:07:06;96355.16;;;16.04;100.00
32747;BME280;19118;50.860;13.662;2023-07-30T00:12:07;96340.72;;;15.99;100.00
32747;BME280;19118;50.860;13.662;2023-07-30T00:17:08;96352.84;;;15.90;100.00
32747;BME280;19118;50.860;13.662;2023-07-30T00:22:08;96346.53;;;15.96;100.00
32747;BME280;19118;50.860;13.662;2023-07-30T00:27:08;96350.25;;;15.95;100.00
32747;BME280;19118;50.860;13.662;2023-07-30T00:32:09;96346.31;;;15.98;100.00
32747;BME280;19118;50.860;13.662;2023-07-30T00:37:09;96341.56;;;16.05;100.00
32747;BME280;19118;50.860;13.662;2023-07-30T00:42:10;96337.00;;;16.00;100.00
32747;BME280;19118;50.860;13.662;2023-07-30T00:47:10;96333.78;;;15.98;100.00
32747;BME280;19118;50.860;13.662;2023-07-30T00:52:11;96327.13;;;16.01;100.00
32747;BME280;19118;50.860;13.662;2023-07-30T00:57:11;96308.88;;;16.15;100.00
32747;BME280;19118;50.860;13.662;2023-07-30T01:02:12;96318.50;;;16.16;100.00
32747;BME280;19118;50.860;13.662;2023-07-30T01:07:12;96315.44;;;16.07;100.00
32747;BME280;19118;50.860;13.662;2023-07-30T01:12:14;96311.94;;;16.01;100.00
32747;BME280;19118;50.860;13.662;2023-07-30T01:17:15;96322.22;;;15.93;100.00
32747;BME280;19118;50.860;13.662;2023-07-30T01:22:16;96325.69;;;15.93;100.00
32747;BME280;19118;50.860;13.662;2023-07-30T01:27:23;96338.22;;;15.93;100.00
32747;BME280;19118;50.860;13.662;2023-07-30T01:32:26;96348.09;;;15.92;100.00
32747;BME280;19118;50.860;13.662;2023-07-30T01:37:28;96345.28;;;16.04;100.00
32747;BME280;19118;50.860;13.662;2023-07-30T01:42:30;96347.28;;;16.14;100.00
32747;BME280;19118;50.860;13.662;2023-07-30T01:47:30;96350.13;;;16.07;100.00
32747;BME280;19118;50.860;13.662;2023-07-30T01:52:30;96351.84;;;15.96;100.00
32747;BME280;19118;50.860;13.662;2023-07-30T01:57:31;96353.59;;;16.08;100.00
32747;BME280;19118;50.860;13.662;2023-07-30T02:02:31;96356.63;;;16.38;100.00
32747;BME280;19118;50.860;13.662;2023-07-30T02:07:32;96354.19;;;16.58;100.00
32747;BME280;19118;50.860;13.662;2023-07-30T02:12:32;96349.63;;;16.81;100.00
32747;BME280;19118;50.860;13.662;2023-07-30T02:17:33;96343.84;;;16.89;100.00
32747;BME280;19118;50.860;13.662;2023-07-30T02:22:33;96338.09;;;17.02;100.00
32747;BME280;19118;50.860;13.662;2023-07-30T02:27:34;96322.44;;;17.16;100.00
32747;BME280;19118;50.860;13.662;2023-07-30T02:32:34;96331.16;;;17.38;100.00
32747;BME280;19118;50.860;13.662;2023-07-30T02:37:35;96345.94;;;17.51;100.00
32747;BME280;19118;50.860;13.662;2023-07-30T02:42:35;96347.59;;;17.62;100.00
32747;BME280;19118;50.860;13.662;2023-07-30T02:47:36;96345.19;;;17.56;100.00
32747;BME280;19118;50.860;13.662;2023-07-30T02:52:36;96362.50;;;17.48;100.00
32747;BME280;19118;50.860;13.662;2023-07-30T02:57:36;96363.13;;;17.28;100.00
32747;BME280;19118;50.860;13.662;2023-07-30T03:02:37;96360.63;;;17.16;100.00
32747;BME280;19118;50.860;13.662;2023-07-30T03:07:37;96363.31;;;17.16;100.00
32747;BME280;19118;50.860;13.662;2023-07-30T03:12:38;96358.22;;;17.15;100.00
32747;BME280;19118;50.860;13.662;2023-07-30T03:17:38;96356.63;;;17.14;100.00
32747;BME280;19118;50.860;13.662;2023-07-30T03:22:39;96349.66;;;17.13;100.00
32747;BME280;19118;50.860;13.662;2023-07-30T03:27:39;96353.44;;;17.17;100.00
32747;BME280;19118;50.860;13.662;2023-07-30T03:32:39;96342.47;;;17.18;100.00
32747;BME280;19118;50.860;13.662;2023-07-30T03:37:40;96345.16;;;17.18;100.00
32747;BME280;19118;50.860;13.662;2023-07-30T03:42:41;96351.63;;;17.28;100.00
32747;BME280;19118;50.860;13.662;2023-07-30T03:47:41;96346.16;;;17.44;100.00
32747;BME280;19118;50.860;13.662;2023-07-30T03:52:42;96345.91;;;17.46;100.00
32747;BME280;19118;50.860;13.662;2023-07-30T03:57:42;96359.28;;;17.46;100.00
32747;BME280;19118;50.860;13.662;2023-07-30T04:02:42;96353.47;;;17.59;100.00
32747;BME280;19118;50.860;13.662;2023-07-30T04:07:43;96361.25;;;17.61;100.00
32747;BME280;19118;50.860;13.662;2023-07-30T04:12:44;96360.22;;;17.67;100.00
32747;BME280;19118;50.860;13.662;2023-07-30T04:17:45;96356.47;;;17.68;100.00
32747;BME280;19118;50.860;13.662;2023-07-30T04:22:45;96361.06;;;17.72;100.00
32747;BME280;19118;50.860;13.662;2023-07-30T04:27:45;96364.28;;;17.74;100.00
32747;BME280;19118;50.860;13.662;2023-07-30T04:32:46;96360.06;;;17.84;100.00
32747;BME280;19118;50.860;13.662;2023-07-30T04:37:46;96363.94;;;18.03;100.00
32747;BME280;19118;50.860;13.662;2023-07-30T04:42:47;96363.88;;;17.93;100.00
32747;BME280;19118;50.860;13.662;2023-07-30T04:47:47;96367.78;;;18.32;100.00
32747;BME280;19118;50.860;13.662;2023-07-30T04:52:48;96366.81;;;18.59;100.00
32747;BME280;19118;50.860;13.662;2023-07-30T04:57:48;96367.44;;;18.97;100.00
32747;BME280;19118;50.860;13.662;2023-07-30T05:02:48;96372.56;;;19.24;100.00
32747;BME280;19118;50.860;13.662;2023-07-30T05:07:49;96364.78;;;19.58;100.00
32747;BME280;19118;50.860;13.662;2023-07-30T05:12:49;96375.50;;;19.83;100.00
32747;BME280;19118;50.860;13.662;2023-07-30T05:17:49;96373.75;;;20.33;100.00
32747;BME280;19118;50.860;13.662;2023-07-30T05:22:50;96367.56;;;20.92;100.00
32747;BME280;19118;50.860;13.662;2023-07-30T05:27:50;96381.34;;;21.88;100.00
32747;BME280;19118;50.860;13.662;2023-07-30T05:32:50;96396.25;;;22.52;100.00
32747;BME280;19118;50.860;13.662;2023-07-30T05:37:51;96400.44;;;22.63;100.00
32747;BME280;19118;50.860;13.662;2023-07-30T05:42:51;96399.16;;;22.36;100.00
32747;BME280;19118;50.860;13.662;2023-07-30T05:47:51;96403.31;;;22.48;100.00
32747;BME280;19118;50.860;13.662;2023-07-30T05:52:52;96404.88;;;22.54;100.00
32747;BME280;19118;50.860;13.662;2023-07-30T05:57:52;96402.22;;;22.49;100.00
32747;BME280;19118;50.860;13.662;2023-07-30T06:02:53;96401.78;;;22.42;100.00
32747;BME280;19118;50.860;13.662;2023-07-30T06:07:54;96407.75;;;22.38;100.00
32747;BME280;19118;50.860;13.662;2023-07-30T06:12:54;96413.34;;;22.18;100.00
32747;BME280;19118;50.860;13.662;2023-07-30T06:17:54;96412.59;;;21.84;100.00
32747;BME280;19118;50.860;13.662;2023-07-30T06:22:55;96419.44;;;21.71;100.00
32747;BME280;19118;50.860;13.662;2023-07-30T06:27:55;96428.66;;;21.26;100.00
32747;BME280;19118;50.860;13.662;2023-07-30T06:32:58;96424.63;;;21.23;100.00
32747;BME280;19118;50.860;13.662;2023-07-30T06:37:59;96426.22;;;21.29;100.00
32747;BME280;19118;50.860;13.662;2023-07-30T06:42:59;96433.97;;;21.36;100.00
32747;BME280;19118;50.860;13.662;2023-07-30T06:48:00;96435.66;;;21.27;100.00
32747;BME280;19118;50.860;13.662;2023-07-30T06:53:00;96432.38;;;21.35;100.00
32747;BME280;19118;50.860;13.662;2023-07-30T06:58:00;96440.97;;;21.37;100.00
32747;BME280;19118;50.860;13.662;2023-07-30T07:03:01;96438.50;;;21.45;100.00
32747;BME280;19118;50.860;13.662;2023-07-30T07:08:01;96438.00;;;21.72;100.00
32747;BME280;19118;50.860;13.662;2023-07-30T07:13:01;96456.03;;;22.06;100.00
32747;BME280;19118;50.860;13.662;2023-07-30T07:18:02;96456.88;;;21.67;100.00
32747;BME280;19118;50.860;13.662;2023-07-30T07:23:03;96452.06;;;21.98;100.00
32747;BME280;19118;50.860;13.662;2023-07-30T07:28:03;96466.56;;;22.31;100.00
32747;BME280;19118;50.860;13.662;2023-07-30T07:33:04;96462.13;;;21.83;100.00
32747;BME280;19118;50.860;13.662;2023-07-30T07:38:05;96469.19;;;21.78;100.00
32747;BME280;19118;50.860;13.662;2023-07-30T07:43:09;96478.19;;;21.98;100.00
32747;BME280;19118;50.860;13.662;2023-07-30T07:48:10;96479.56;;;22.24;100.00
32747;BME280;19118;50.860;13.662;2023-07-30T07:53:10;96488.59;;;22.86;100.00
32747;BME280;19118;50.860;13.662;2023-07-30T07:58:10;96482.31;;;23.52;100.00
32747;BME280;19118;50.860;13.662;2023-07-30T08:03:11;96480.34;;;23.77;100.00
32747;BME280;19118;50.860;13.662;2023-07-30T08:08:11;96474.94;;;23.77;100.00
32747;BME280;19118;50.860;13.662;2023-07-30T08:13:13;96474.53;;;24.02;100.00
32747;BME280;19118;50.860;13.662;2023-07-30T08:18:13;96477.22;;;23.70;100.00
32747;BME280;19118;50.860;13.662;2023-07-30T08:23:13;96476.47;;;24.16;100.00
32747;BME280;19118;50.860;13.662;2023-07-30T08:28:14;96472.34;;;24.51;97.35
32747;BME280;19118;50.860;13.662;2023-07-30T08:33:14;96476.69;;;25.43;92.65
32747;BME280;19118;50.860;13.662;2023-07-30T08:38:15;96471.19;;;25.93;85.60
32747;BME280;19118;50.860;13.662;2023-07-30T08:43:15;96482.19;;;26.19;77.98
32747;BME280;19118;50.860;13.662;2023-07-30T08:48:16;96479.66;;;25.55;81.75
32747;BME280;19118;50.860;13.662;2023-07-30T08:53:17;96477.81;;;25.28;86.69
32747;BME280;19118;50.860;13.662;2023-07-30T08:58:18;96481.25;;;24.79;88.15
32747;BME280;19118;50.860;13.662;2023-07-30T09:03:19;96478.75;;;24.96;91.12
32747;BME280;19118;50.860;13.662;2023-07-30T09:08:21;96482.56;;;24.95;88.08
32747;BME280;19118;50.860;13.662;2023-07-30T09:13:23;96482.34;;;24.78;89.07
32747;BME280;19118;50.860;13.662;2023-07-30T09:18:26;96478.72;;;25.23;88.01
32747;BME280;19118;50.860;13.662;2023-07-30T09:23:26;96469.53;;;24.97;88.27
32747;BME280;19118;50.860;13.662;2023-07-30T09:28:33;96471.66;;;25.36;82.57
32747;BME280;19118;50.860;13.662;2023-07-30T09:33:34;96480.31;;;25.97;80.88
32747;BME280;19118;50.860;13.662;2023-07-30T09:38:39;96480.59;;;26.49;77.53
32747;BME280;19118;50.860;13.662;2023-07-30T09:43:40;96488.28;;;26.02;76.09
32747;BME280;19118;50.860;13.662;2023-07-30T09:48:40;96485.72;;;26.19;77.35
32747;BME280;19118;50.860;13.662;2023-07-30T09:53:40;96470.81;;;26.70;74.06
32747;BME280;19118;50.860;13.662;2023-07-30T09:58:41;96468.59;;;27.20;72.38
32747;BME280;19118;50.860;13.662;2023-07-30T10:03:42;96475.19;;;26.88;69.99
32747;BME280;19118;50.860;13.662;2023-07-30T10:08:44;96465.91;;;27.81;65.68
32747;BME280;19118;50.860;13.662;2023-07-30T10:13:45;96475.97;;;27.89;66.04
32747;BME280;19118;50.860;13.662;2023-07-30T10:18:46;96476.91;;;27.59;66.40
32747;BME280;19118;50.860;13.662;2023-07-30T10:24:00;96469.94;;;27.01;68.12
32747;BME280;19118;50.860;13.662;2023-07-30T10:29:11;96465.41;;;27.36;66.95
32747;BME280;19118;50.860;13.662;2023-07-30T10:34:12;96462.97;;;27.17;66.33
32747;BME280;19118;50.860;13.662;2023-07-30T10:39:20;96477.44;;;26.24;70.51
32747;BME280;19118;50.860;13.662;2023-07-30T10:44:32;96472.13;;;25.52;74.44
32747;BME280;19118;50.860;13.662;2023-07-30T10:49:39;96491.09;;;25.02;87.58
32747;BME280;19118;50.860;13.662;2023-07-30T10:54:40;96482.28;;;26.05;76.79
32747;BME280;19118;50.860;13.662;2023-07-30T10:59:41;96481.81;;;26.11;70.00
32747;BME280;19118;50.860;13.662;2023-07-30T11:04:41;96482.81;;;26.16;70.53
32747;BME280;19118;50.860;13.662;2023-07-30T11:09:42;96474.41;;;25.95;70.44
32747;BME280;19118;50.860;13.662;2023-07-30T11:14:42;96471.44;;;26.67;67.15
32747;BME280;19118;50.860;13.662;2023-07-30T11:19:43;96451.78;;;26.53;63.39
32747;BME280;19118;50.860;13.662;2023-07-30T11:24:43;96452.75;;;26.03;66.83
32747;BME280;19118;50.860;13.662;2023-07-30T11:29:56;96445.38;;;26.26;62.09
32747;BME280;19118;50.860;13.662;2023-07-30T11:34:57;96435.94;;;25.93;60.86
32747;BME280;19118;50.860;13.662;2023-07-30T11:39:57;96437.56;;;26.25;57.47
32747;BME280;19118;50.860;13.662;2023-07-30T11:44:57;96441.66;;;26.93;56.49
32747;BME280;19118;50.860;13.662;2023-07-30T11:49:58;96438.78;;;26.89;56.14
32747;BME280;19118;50.860;13.662;2023-07-30T11:55:05;96443.28;;;26.46;59.10
32747;BME280;19118;50.860;13.662;2023-07-30T12:00:06;96448.03;;;25.64;62.98
32747;BME280;19118;50.860;13.662;2023-07-30T12:05:12;96429.53;;;25.44;63.34
32747;BME280;19118;50.860;13.662;2023-07-30T12:10:13;96429.53;;;25.44;65.77
32747;BME280;19118;50.860;13.662;2023-07-30T12:15:13;96414.59;;;25.91;62.81
32747;BME280;19118;50.860;13.662;2023-07-30T12:20:14;96410.75;;;25.83;61.75
32747;BME280;19118;50.860;13.662;2023-07-30T12:25:14;96402.84;;;26.35;59.91
32747;BME280;19118;50.860;13.662;2023-07-30T12:30:14;96392.97;;;26.79;56.07
32747;BME280;19118;50.860;13.662;2023-07-30T12:35:15;96385.03;;;27.26;52.98
32747;BME280;19118;50.860;13.662;2023-07-30T12:40:16;96403.25;;;27.34;51.87
32747;BME280;19118;50.860;13.662;2023-07-30T12:45:16;96406.25;;;26.98;52.35
32747;BME280;19118;50.860;13.662;2023-07-30T12:50:17;96402.63;;;27.20;51.40
32747;BME280;19118;50.860;13.662;2023-07-30T12:55:17;96414.59;;;27.19;52.43
32747;BME280;19118;50.860;13.662;2023-07-30T13:00:18;96416.88;;;26.29;54.24
32747;BME280;19118;50.860;13.662;2023-07-30T13:05:18;96413.59;;;26.49;54.13
32747;BME280;19118;50.860;13.662;2023-07-30T13:10:18;96416.19;;;27.28;53.19
32747;BME280;19118;50.860;13.662;2023-07-30T13:15:19;96410.53;;;28.03;52.15
32747;BME280;19118;50.860;13.662;2023-07-30T13:20:19;96418.72;;;27.51;52.21
32747;BME280;19118;50.860;13.662;2023-07-30T13:25:19;96410.09;;;27.83;52.47
32747;BME280;19118;50.860;13.662;2023-07-30T13:30:20;96399.25;;;27.23;53.21
32747;BME280;19118;50.860;13.662;2023-07-30T13:35:21;96396.06;;;27.55;54.70
32747;BME280;19118;50.860;13.662;2023-07-30T13:40:22;96382.97;;;27.06;54.78
32747;BME280;19118;50.860;13.662;2023-07-30T13:45:22;96391.41;;;27.82;54.51
32747;BME280;19118;50.860;13.662;2023-07-30T13:50:23;96398.59;;;27.52;53.17
32747;BME280;19118;50.860;13.662;2023-07-30T13:55:23;96392.41;;;27.69;52.68
32747;BME280;19118;50.860;13.662;2023-07-30T14:00:23;96395.69;;;27.92;51.28
32747;BME280;19118;50.860;13.662;2023-07-30T14:05:24;96390.66;;;27.30;51.86
32747;BME280;19118;50.860;13.662;2023-07-30T14:10:24;96393.34;;;27.64;50.29
32747;BME280;19118;50.860;13.662;2023-07-30T14:15:25;96393.56;;;28.14;49.39
32747;BME280;19118;50.860;13.662;2023-07-30T14:20:25;96401.63;;;27.50;51.53
32747;BME280;19118;50.860;13.662;2023-07-30T14:25:26;96403.88;;;27.48;52.11
32747;BME280;19118;50.860;13.662;2023-07-30T14:30:26;96403.56;;;27.07;52.33
32747;BME280;19118;50.860;13.662;2023-07-30T14:35:26;96392.44;;;26.20;51.73
32747;BME280;19118;50.860;13.662;2023-07-30T14:40:27;96396.78;;;25.99;53.96
32747;BME280;19118;50.860;13.662;2023-07-30T14:45:27;96405.09;;;25.58;55.99
32747;BME280;19118;50.860;13.662;2023-07-30T14:50:27;96409.69;;;24.98;57.12
32747;BME280;19118;50.860;13.662;2023-07-30T14:55:29;96417.28;;;24.60;60.68
32747;BME280;19118;50.860;13.662;2023-07-30T15:00:30;96422.88;;;24.50;64.10
32747;BME280;19118;50.860;13.662;2023-07-30T15:05:31;96418.75;;;25.30;70.63
32747;BME280;19118;50.860;13.662;2023-07-30T15:10:32;96465.22;;;24.68;73.81
32747;BME280;19118;50.860;13.662;2023-07-30T15:15:33;96484.28;;;23.85;91.46
32747;BME280;19118;50.860;13.662;2023-07-30T15:20:33;96503.47;;;23.27;98.24
32747;BME280;19118;50.860;13.662;2023-07-30T15:25:34;96507.69;;;22.66;100.00
32747;BME280;19118;50.860;13.662;2023-07-30T15:30:36;96497.88;;;22.75;100.00
32747;BME280;19118;50.860;13.662;2023-07-30T15:35:37;96497.78;;;22.85;100.00
32747;BME280;19118;50.860;13.662;2023-07-30T15:40:38;96488.84;;;22.66;98.54
32747;BME280;19118;50.860;13.662;2023-07-30T15:45:38;96482.50;;;22.76;97.61
32747;BME280;19118;50.860;13.662;2023-07-30T15:50:43;96470.31;;;22.83;100.00
32747;BME280;19118;50.860;13.662;2023-07-30T15:55:43;96473.34;;;22.77;97.91
32747;BME280;19118;50.860;13.662;2023-07-30T16:00:44;96469.84;;;23.57;89.73
32747;BME280;19118;50.860;13.662;2023-07-30T16:05:47;96469.06;;;24.21;80.09
32747;BME280;19118;50.860;13.662;2023-07-30T16:11:00;96477.50;;;23.49;79.88
32747;BME280;19118;50.860;13.662;2023-07-30T16:16:15;96482.00;;;22.98;82.96
32747;BME280;19118;50.860;13.662;2023-07-30T16:21:15;96488.34;;;22.88;86.32
32747;BME280;19118;50.860;13.662;2023-07-30T16:26:15;96502.38;;;22.85;87.14
32747;BME280;19118;50.860;13.662;2023-07-30T16:31:16;96507.34;;;23.77;86.75
32747;BME280;19118;50.860;13.662;2023-07-30T16:36:16;96499.47;;;25.28;73.07
32747;BME280;19118;50.860;13.662;2023-07-30T16:41:17;96499.25;;;23.39;84.99
32747;BME280;19118;50.860;13.662;2023-07-30T16:46:17;96518.47;;;22.08;98.39
32747;BME280;19118;50.860;13.662;2023-07-30T16:51:17;96542.91;;;21.38;100.00
32747;BME280;19118;50.860;13.662;2023-07-30T16:56:18;96552.50;;;20.90;100.00
32747;BME280;19118;50.860;13.662;2023-07-30T17:01:19;96563.28;;;20.80;100.00
32747;BME280;19118;50.860;13.662;2023-07-30T17:06:21;96600.66;;;20.00;100.00
32747;BME280;19118;50.860;13.662;2023-07-30T17:11:22;96607.03;;;19.63;100.00
32747;BME280;19118;50.860;13.662;2023-07-30T17:16:22;96597.56;;;19.40;100.00
32747;BME280;19118;50.860;13.662;2023-07-30T17:21:23;96604.63;;;18.99;100.00
32747;BME280;19118;50.860;13.662;2023-07-30T17:26:25;96622.69;;;19.19;100.00
32747;BME280;19118;50.860;13.662;2023-07-30T17:31:26;96620.09;;;19.44;100.00
32747;BME280;19118;50.860;13.662;2023-07-30T17:36:26;96619.72;;;19.88;100.00
32747;BME280;19118;50.860;13.662;2023-07-30T17:41:27;96625.59;;;19.90;100.00
32747;BME280;19118;50.860;13.662;2023-07-30T17:46:28;96634.78;;;20.86;96.30
32747;BME280;19118;50.860;13.662;2023-07-30T17:51:28;96637.47;;;22.20;80.88
32747;BME280;19118;50.860;13.662;2023-07-30T17:56:28;96638.56;;;20.59;81.26
32747;BME280;19118;50.860;13.662;2023-07-30T18:01:29;96649.53;;;19.29;92.55
32747;BME280;19118;50.860;13.662;2023-07-30T18:06:29;96653.97;;;18.66;98.56
32747;BME280;19118;50.860;13.662;2023-07-30T18:11:29;96662.69;;;18.19;100.00
32747;BME280;19118;50.860;13.662;2023-07-30T18:16:30;96663.00;;;17.96;100.00
32747;BME280;19118;50.860;13.662;2023-07-30T18:21:30;96659.09;;;17.60;100.00
32747;BME280;19118;50.860;13.662;2023-07-30T18:26:31;96645.25;;;17.41;100.00
32747;BME280;19118;50.860;13.662;2023-07-30T18:31:31;96660.03;;;17.27;100.00
32747;BME280;19118;50.860;13.662;2023-07-30T18:36:35;96666.31;;;17.15;100.00
32747;BME280;19118;50.860;13.662;2023-07-30T18:41:35;96670.97;;;17.03;100.00
32747;BME280;19118;50.860;13.662;2023-07-30T18:46:37;96679.09;;;16.75;100.00
32747;BME280;19118;50.860;13.662;2023-07-30T18:51:37;96664.19;;;16.62;100.00
32747;BME280;19118;50.860;13.662;2023-07-30T18:56:37;96664.69;;;16.42;100.00
32747;BME280;19118;50.860;13.662;2023-07-30T19:01:38;96669.38;;;16.35;100.00
32747;BME280;19118;50.860;13.662;2023-07-30T19:06:39;96676.06;;;16.21;100.00
32747;BME280;19118;50.860;13.662;2023-07-30T19:11:39;96679.03;;;16.08;100.00
32747;BME280;19118;50.860;13.662;2023-07-30T19:16:40;96687.06;;;15.96;100.00
32747;BME280;19118;50.860;13.662;2023-07-30T19:21:40;96682.84;;;15.83;100.00
32747;BME280;19118;50.860;13.662;2023-07-30T19:26:41;96689.03;;;15.72;100.00
32747;BME280;19118;50.860;13.662;2023-07-30T19:31:41;96696.94;;;15.67;100.00
32747;BME280;19118;50.860;13.662;2023-07-30T19:36:41;96690.81;;;15.55;100.00
32747;BME280;19118;50.860;13.662;2023-07-30T19:41:42;96698.38;;;15.46;100.00
32747;BME280;19118;50.860;13.662;2023-07-30T19:46:43;96700.69;;;15.42;100.00
32747;BME280;19118;50.860;13.662;2023-07-30T19:51:43;96702.13;;;15.22;100.00
32747;BME280;19118;50.860;13.662;2023-07-30T19:56:45;96699.47;;;15.10;100.00
32747;BME280;19118;50.860;13.662;2023-07-30T20:01:45;96688.13;;;14.91;100.00
32747;BME280;19118;50.860;13.662;2023-07-30T20:06:46;96694.84;;;14.70;100.00
32747;BME280;19118;50.860;13.662;2023-07-30T20:11:47;96692.41;;;14.69;100.00
32747;BME280;19118;50.860;13.662;2023-07-30T20:16:47;96688.47;;;14.60;100.00
32747;BME280;19118;50.860;13.662;2023-07-30T20:21:47;96686.03;;;14.81;100.00
32747;BME280;19118;50.860;13.662;2023-07-30T20:26:49;96692.66;;;14.91;100.00
32747;BME280;19118;50.860;13.662;2023-07-30T20:31:49;96692.53;;;15.09;100.00
32747;BME280;19118;50.860;13.662;2023-07-30T20:36:49;96691.22;;;15.23;100.00
32747;BME280;19118;50.860;13.662;2023-07-30T20:41:50;96691.00;;;15.25;100.00
32747;BME280;19118;50.860;13.662;2023-07-30T20:46:52;96695.63;;;15.29;100.00
32747;BME280;19118;50.860;13.662;2023-07-30T20:51:52;96689.69;;;15.39;100.00
32747;BME280;19118;50.860;13.662;2023-07-30T20:56:53;96690.13;;;15.48;100.00
32747;BME280;19118;50.860;13.662;2023-07-30T21:01:53;96694.78;;;15.64;100.00
32747;BME280;19118;50.860;13.662;2023-07-30T21:06:53;96690.09;;;15.71;100.00
32747;BME280;19118;50.860;13.662;2023-07-30T21:11:54;96704.94;;;15.67;100.00
32747;BME280;19118;50.860;13.662;2023-07-30T21:16:54;96699.25;;;15.75;100.00
32747;BME280;19118;50.860;13.662;2023-07-30T21:21:55;96701.44;;;15.78;100.00
32747;BME280;19118;50.860;13.662;2023-07-30T21:26:55;96703.19;;;15.72;100.00
32747;BME280;19118;50.860;13.662;2023-07-30T21:31:55;96689.03;;;15.72;100.00
32747;BME280;19118;50.860;13.662;2023-07-30T21:36:56;96688.19;;;15.83;100.00
32747;BME280;19118;50.860;13.662;2023-07-30T21:41:57;96689.34;;;15.87;100.00
32747;BME280;19118;50.860;13.662;2023-07-30T21:46:57;96692.63;;;15.78;100.00
32747;BME280;19118;50.860;13.662;2023-07-30T21:51:57;96694.47;;;15.77;100.00
32747;BME280;19118;50.860;13.662;2023-07-30T21:56:58;96695.19;;;15.72;100.00
32747;BME280;19118;50.860;13.662;2023-07-30T22:01:58;96698.09;;;15.71;100.00
32747;BME280;19118;50.860;13.662;2023-07-30T22:06:58;96694.28;;;15.67;100.00
32747;BME280;19118;50.860;13.662;2023-07-30T22:11:59;96688.84;;;15.62;100.00
32747;BME280;19118;50.860;13.662;2023-07-30T22:16:59;96692.75;;;15.71;100.00
32747;BME280;19118;50.860;13.662;2023-07-30T22:22:00;96691.94;;;15.59;100.00
32747;BME280;19118;50.860;13.662;2023-07-30T22:27:00;96688.72;;;15.57;100.00
32747;BME280;19118;50.860;13.662;2023-07-30T22:32:00;96696.03;;;15.61;100.00
32747;BME280;19118;50.860;13.662;2023-07-30T22:37:01;96699.06;;;15.65;100.00
32747;BME280;19118;50.860;13.662;2023-07-30T22:42:01;96701.28;;;15.44;100.00
32747;BME280;19118;50.860;13.662;2023-07-30T22:47:01;96699.19;;;15.47;100.00
32747;BME280;19118;50.860;13.662;2023-07-30T22:52:02;96695.25;;;15.37;100.00
32747;BME280;19118;50.860;13.662;2023-07-30T22:57:03;96702.34;;;15.32;100.00
32747;BME280;19118;50.860;13.662;2023-07-30T23:02:04;96701.06;;;15.23;100.00
32747;BME280;19118;50.860;13.662;2023-07-30T23:07:05;96697.38;;;15.24;100.00
32747;BME280;19118;50.860;13.662;2023-07-30T23:12:06;96695.97;;;15.21;100.00
32747;BME280;19118;50.860;13.662;2023-07-30T23:17:07;96692.53;;;15.09;100.00
32747;BME280;19118;50.860;13.662;2023-07-30T23:22:07;96687.66;;;15.06;100.00
32747;BME280;19118;50.860;13.662;2023-07-30T23:27:07;96687.56;;;15.01;100.00
32747;BME280;19118;50.860;13.662;2023-07-30T23:32:08;96683.75;;;14.97;100.00
32747;BME280;19118;50.860;13.662;2023-07-30T23:37:08;96682.81;;;14.91;100.00
32747;BME280;19118;50.860;13.662;2023-07-30T23:42:08;96680.16;;;14.91;100.00
32747;BME280;19118;50.860;13.662;2023-07-30T23:47:09;96677.72;;;14.90;100.00
32747;BME280;19118;50.860;13.662;2023-07-30T23:52:10;96683.38;;;14.93;100.00
32747;BME280;19118;50.860;13.662;2023-07-30T23:57:10;96680.16;;;14.91;100.00
